createdAt,value
2023-05-12T00:02:06.747Z,24.62
2023-05-12T00:05:10.320Z,24.35
2023-05-12T00:08:13.569Z,24.37
2023-05-12T00:11:17.582Z,23.97
2023-05-12T00:14:20.947Z,23.92
2023-05-12T00:17:25.109Z,23.74
2023-05-12T00:20:28.329Z,23.82
2023-05-12T00:23:32.006Z,23.64
2023-05-12T00:26:35.300Z,23.62
2023-05-12T00:29:39.013Z,23.51
2023-05-12T00:32:42.503Z,23.35
2023-05-12T00:35:45.812Z,23.48
2023-05-12T00:38:49.117Z,23.53
2023-05-12T00:42:00.601Z,23.25
2023-05-12T00:45:04.824Z,23.22
2023-05-12T00:48:09.833Z,23.07
2023-05-12T00:51:15.964Z,23.13
2023-05-12T00:54:19.639Z,22.92
2023-05-12T00:57:23.743Z,22.77
2023-05-12T01:00:27.143Z,22.80
2023-05-12T01:03:31.025Z,22.88
2023-05-12T01:06:43.752Z,23.02
2023-05-12T01:09:47.115Z,22.98
2023-05-12T01:12:50.678Z,22.91
2023-05-12T01:15:55.013Z,22.88
2023-05-12T01:19:01.834Z,22.98
2023-05-12T01:22:05.794Z,22.92
2023-05-12T01:25:11.977Z,22.54
2023-05-12T01:28:15.861Z,22.58
2023-05-12T01:31:23.222Z,22.52
2023-05-12T01:34:26.822Z,22.62
2023-05-12T01:37:30.181Z,22.69
2023-05-12T01:40:33.386Z,22.83
2023-05-12T01:43:37.038Z,22.53
2023-05-12T01:46:40.519Z,22.42
2023-05-12T01:49:44.116Z,22.44
2023-05-12T01:52:50.170Z,22.40
2023-05-12T01:55:53.760Z,22.40
2023-05-12T01:58:58.186Z,22.35
2023-05-12T02:02:01.726Z,22.32
2023-05-12T02:05:05.479Z,22.41
2023-05-12T02:08:09.593Z,22.27
2023-05-12T02:11:13.149Z,22.18
2023-05-12T02:14:17.304Z,22.20
2023-05-12T02:17:20.705Z,22.21
2023-05-12T02:20:24.136Z,22.27
2023-05-12T02:23:27.377Z,22.20
2023-05-12T02:26:30.590Z,22.23
2023-05-12T02:29:34.103Z,22.22
2023-05-12T02:32:37.573Z,22.14
2023-05-12T02:35:40.811Z,22.03
2023-05-12T02:38:44.134Z,22.13
2023-05-12T02:41:47.737Z,22.13
2023-05-12T02:44:51.253Z,22.30
2023-05-12T02:47:55.798Z,22.14
2023-05-12T02:50:59.192Z,22.07
2023-05-12T02:54:02.675Z,22.13
2023-05-12T02:57:07.209Z,22.04
2023-05-12T03:00:11.790Z,22.06
2023-05-12T03:03:17.475Z,22.12
2023-05-12T03:06:20.949Z,22.05
2023-05-12T03:09:24.344Z,22.11
2023-05-12T03:12:28.013Z,22.10
2023-05-12T03:15:31.327Z,22.05
2023-05-12T03:18:34.730Z,22.11
2023-05-12T03:21:39.952Z,22.05
2023-05-12T03:24:43.408Z,22.14
2023-05-12T03:27:46.837Z,22.12
2023-05-12T03:30:50.163Z,22.12
2023-05-12T03:33:53.502Z,22.02
2023-05-12T03:36:56.942Z,21.99
2023-05-12T03:40:00.182Z,22.02
2023-05-12T03:43:03.398Z,22.00
2023-05-12T03:46:09.269Z,22.02
2023-05-12T03:49:12.578Z,22.15
2023-05-12T03:52:16.194Z,22.09
2023-05-12T03:55:19.659Z,22.01
2023-05-12T03:58:26.673Z,22.02
2023-05-12T04:01:29.951Z,22.14
2023-05-12T04:04:36.084Z,22.10
2023-05-12T04:07:39.515Z,22.06
2023-05-12T04:10:43.307Z,22.25
2023-05-12T04:13:49.850Z,22.22
2023-05-12T04:16:53.565Z,22.17
2023-05-12T04:19:56.966Z,22.19
2023-05-12T04:23:01.108Z,22.18
2023-05-12T04:26:05.550Z,22.12
2023-05-12T04:29:08.934Z,22.15
2023-05-12T04:32:12.133Z,22.17
2023-05-12T04:35:17.191Z,22.10
2023-05-12T04:38:20.669Z,22.03
2023-05-12T04:41:24.192Z,22.11
2023-05-12T04:44:28.095Z,22.14
2023-05-12T04:47:31.554Z,22.28
2023-05-12T04:50:35.007Z,22.10
2023-05-12T04:53:38.455Z,22.12
2023-05-12T04:56:41.702Z,22.09
2023-05-12T04:59:45.088Z,22.09
2023-05-12T05:02:48.466Z,22.16
2023-05-12T05:05:51.921Z,22.18
2023-05-12T05:08:55.457Z,22.25
2023-05-12T05:11:59.238Z,22.20
2023-05-12T05:15:02.607Z,22.27
2023-05-12T05:18:06.123Z,22.49
2023-05-12T05:21:09.528Z,22.57
2023-05-12T05:24:15.823Z,22.55
2023-05-12T05:27:19.928Z,22.53
2023-05-12T05:30:24.636Z,22.60
2023-05-12T05:33:28.740Z,22.58
2023-05-12T05:36:32.000Z,22.57
2023-05-12T05:39:35.909Z,22.54
2023-05-12T05:42:40.142Z,22.54
2023-05-12T05:45:43.622Z,22.72
2023-05-12T05:48:47.114Z,22.79
2023-05-12T05:51:50.327Z,22.76
2023-05-12T05:54:53.581Z,22.61
2023-05-12T05:57:56.967Z,22.57
2023-05-12T06:01:01.348Z,22.64
2023-05-12T06:04:04.625Z,22.80
2023-05-12T06:07:09.631Z,23.04
2023-05-12T06:10:13.157Z,22.90
2023-05-12T06:13:16.974Z,22.98
2023-05-12T06:16:20.167Z,22.88
2023-05-12T06:19:23.382Z,22.78
2023-05-12T06:22:26.679Z,23.08
2023-05-12T06:25:30.157Z,23.14
2023-05-12T06:28:33.544Z,23.20
2023-05-12T06:31:36.767Z,23.19
2023-05-12T06:34:39.998Z,23.24
2023-05-12T06:37:43.507Z,23.12
2023-05-12T06:40:46.747Z,23.11
2023-05-12T06:43:49.985Z,23.24
2023-05-12T06:46:53.815Z,23.12
2023-05-12T06:49:57.405Z,23.21
2023-05-12T06:53:01.809Z,23.44
2023-05-12T06:56:06.625Z,23.43
2023-05-12T06:59:12.192Z,23.25
2023-05-12T07:02:15.423Z,23.33
2023-05-12T07:05:19.342Z,23.21
2023-05-12T07:08:22.827Z,23.29
2023-05-12T07:11:26.366Z,23.49
2023-05-12T07:14:31.789Z,23.33
2023-05-12T07:17:38.101Z,23.30
2023-05-12T07:20:41.840Z,23.40
2023-05-12T07:23:46.117Z,23.48
2023-05-12T07:26:49.640Z,23.40
2023-05-12T07:29:55.219Z,23.33
2023-05-12T07:32:58.511Z,23.43
2023-05-12T07:36:02.385Z,23.35
2023-05-12T07:39:05.792Z,23.38
2023-05-12T07:42:09.358Z,23.51
2023-05-12T07:45:12.742Z,23.38
2023-05-12T07:48:16.074Z,23.45
2023-05-12T07:51:19.436Z,23.36
2023-05-12T07:54:22.637Z,23.36
2023-05-12T07:57:26.141Z,23.51
2023-05-12T08:00:29.563Z,23.45
2023-05-12T08:03:36.680Z,23.44
2023-05-12T08:06:40.234Z,23.66
2023-05-12T08:09:43.788Z,23.49
2023-05-12T08:12:47.098Z,23.85
2023-05-12T08:15:51.340Z,23.87
2023-05-12T08:18:54.617Z,23.95
2023-05-12T08:21:57.950Z,23.94
2023-05-12T08:25:01.208Z,24.06
2023-05-12T08:28:04.585Z,24.05
2023-05-12T08:31:08.062Z,24.17
2023-05-12T08:34:11.440Z,24.09
2023-05-12T08:37:15.102Z,24.19
2023-05-12T08:40:27.065Z,24.23
2023-05-12T08:44:00.219Z,24.28
2023-05-12T08:47:08.048Z,24.30
2023-05-12T08:50:11.604Z,24.32
2023-05-12T08:53:15.913Z,24.42
2023-05-12T08:59:27.460Z,24.26
2023-05-12T09:02:41.350Z,24.34
2023-05-12T09:05:50.591Z,24.47
2023-05-12T09:08:53.805Z,24.55
2023-05-12T09:11:58.518Z,24.33
2023-05-12T09:15:09.806Z,24.47
2023-05-12T09:18:13.299Z,24.48
2023-05-12T09:21:16.740Z,24.22
2023-05-12T09:24:20.088Z,24.26
2023-05-12T09:27:30.166Z,24.52
2023-05-12T09:30:33.796Z,24.31
2023-05-12T09:33:39.242Z,24.24
2023-05-12T09:36:42.784Z,24.35
2023-05-12T09:39:45.993Z,24.52
2023-05-12T09:42:49.220Z,24.25
2023-05-12T09:45:52.467Z,24.16
2023-05-12T09:48:59.369Z,24.45
2023-05-12T09:52:04.679Z,24.28
2023-05-12T09:55:16.529Z,24.23
2023-05-12T09:58:21.241Z,24.11
2023-05-12T10:01:25.594Z,24.30
2023-05-12T10:04:31.266Z,24.28
2023-05-12T10:07:35.010Z,24.24
2023-05-12T10:10:38.521Z,23.99
2023-05-12T10:13:42.011Z,23.87
2023-05-12T10:16:49.796Z,23.83
2023-05-12T10:19:53.893Z,23.88
2023-05-12T10:22:58.713Z,23.88
2023-05-12T10:26:02.294Z,24.05
2023-05-12T10:29:05.824Z,24.11
2023-05-12T10:32:10.884Z,24.02
2023-05-12T10:35:14.966Z,24.11
2023-05-12T10:38:18.559Z,24.11
2023-05-12T10:41:36.593Z,24.00
2023-05-12T10:44:51.521Z,24.25
2023-05-12T10:48:06.372Z,24.03
2023-05-12T10:51:11.752Z,24.04
2023-05-12T10:54:24.364Z,24.05
2023-05-12T10:57:28.234Z,24.07
2023-05-12T11:00:32.152Z,24.18
2023-05-12T11:03:37.233Z,24.25
2023-05-12T11:06:46.644Z,24.29
2023-05-12T11:09:58.565Z,24.17
2023-05-12T11:13:04.725Z,24.37
2023-05-12T11:16:08.199Z,24.27
2023-05-12T11:19:11.881Z,24.19
2023-05-12T11:22:18.528Z,24.28
2023-05-12T11:25:22.149Z,24.26
2023-05-12T11:28:25.998Z,24.30
2023-05-12T11:31:29.537Z,24.25
2023-05-12T11:34:33.101Z,24.25
2023-05-12T11:37:43.837Z,24.33
2023-05-12T11:40:47.458Z,24.21
2023-05-12T11:43:50.977Z,24.31
2023-05-12T11:47:12.246Z,24.42
2023-05-12T11:50:22.930Z,24.31
2023-05-12T11:53:27.702Z,24.28
2023-05-12T11:56:31.671Z,24.20
2023-05-12T11:59:36.316Z,24.28
2023-05-12T12:02:40.014Z,24.33
2023-05-12T12:05:45.996Z,24.56
2023-05-12T12:08:56.943Z,24.76
2023-05-12T12:12:02.002Z,24.63
2023-05-12T12:15:05.658Z,24.65
2023-05-12T12:18:09.138Z,24.54
2023-05-12T12:21:12.481Z,24.63
2023-05-12T12:24:15.874Z,24.48
2023-05-12T12:27:19.084Z,24.62
2023-05-12T12:30:22.486Z,24.71
2023-05-12T12:33:25.825Z,24.71
2023-05-12T12:36:29.204Z,24.78
2023-05-12T12:39:32.468Z,24.73
2023-05-12T12:42:37.162Z,24.74
2023-05-12T12:45:40.626Z,24.71
2023-05-12T12:48:46.228Z,24.80
2023-05-12T12:51:49.689Z,24.88
2023-05-12T12:54:53.133Z,25.07
2023-05-12T12:57:56.453Z,25.08
2023-05-12T13:01:00.005Z,25.20
2023-05-12T13:04:03.197Z,24.98
2023-05-12T13:07:06.831Z,25.19
2023-05-12T13:10:10.748Z,25.37
2023-05-12T13:13:14.276Z,25.28
2023-05-12T13:16:17.758Z,25.25
2023-05-12T13:19:21.151Z,25.27
2023-05-12T13:22:24.472Z,25.55
2023-05-12T13:25:27.833Z,25.54
2023-05-12T13:28:31.116Z,25.48
2023-05-12T13:31:35.181Z,25.44
2023-05-12T13:34:40.502Z,25.17
2023-05-12T13:37:43.834Z,25.30
2023-05-12T13:40:47.661Z,25.56
2023-05-12T13:43:50.945Z,25.17
2023-05-12T13:46:54.475Z,25.21
2023-05-12T13:49:58.435Z,25.40
2023-05-12T13:53:02.084Z,25.45
2023-05-12T13:56:07.935Z,25.41
2023-05-12T13:59:11.388Z,25.68
2023-05-12T14:02:15.011Z,25.44
2023-05-12T14:05:18.926Z,25.56
2023-05-12T14:08:22.502Z,25.89
2023-05-12T14:11:26.076Z,25.89
2023-05-12T14:14:31.733Z,25.76
2023-05-12T14:17:35.032Z,25.64
2023-05-12T14:20:38.341Z,25.64
2023-05-12T14:23:41.746Z,25.72
2023-05-12T14:26:45.245Z,25.97
2023-05-12T14:29:48.394Z,26.00
2023-05-12T14:32:51.880Z,26.10
2023-05-12T14:36:05.662Z,26.19
2023-05-12T14:39:11.152Z,25.90
2023-05-12T14:42:16.764Z,25.86
2023-05-12T14:45:20.566Z,25.82
2023-05-12T14:48:24.793Z,26.10
2023-05-12T14:51:28.211Z,26.82
2023-05-12T14:54:31.673Z,27.11
2023-05-12T14:57:35.020Z,27.51
2023-05-12T15:00:38.521Z,28.01
2023-05-12T15:03:42.174Z,28.32
2023-05-12T15:06:45.718Z,27.77
2023-05-12T15:09:49.020Z,27.90
2023-05-12T15:12:52.534Z,27.88
2023-05-12T15:15:56.861Z,28.46
2023-05-12T15:19:00.582Z,28.73
2023-05-12T15:22:04.017Z,28.62
2023-05-12T15:25:08.109Z,28.30
2023-05-12T15:28:11.491Z,28.29
2023-05-12T15:31:14.883Z,28.61
2023-05-12T15:34:18.261Z,28.03
2023-05-12T15:37:21.673Z,27.64
2023-05-12T15:40:25.109Z,27.73
2023-05-12T15:43:29.044Z,27.56
2023-05-12T15:46:32.479Z,27.61
2023-05-12T15:49:35.747Z,28.35
2023-05-12T15:52:39.080Z,28.88
2023-05-12T15:55:42.413Z,29.57
2023-05-12T15:58:45.875Z,29.23
2023-05-12T16:01:51.944Z,28.68
2023-05-12T16:04:55.514Z,28.80
2023-05-12T16:07:58.743Z,29.15
2023-05-12T16:11:03.404Z,28.99
2023-05-12T16:14:06.722Z,29.11
2023-05-12T16:17:10.328Z,29.14
2023-05-12T16:20:13.790Z,29.14
2023-05-12T16:23:17.897Z,29.25
2023-05-12T16:26:21.053Z,29.17
2023-05-12T16:29:24.355Z,29.14
2023-05-12T16:32:27.589Z,29.60
2023-05-12T16:35:31.059Z,30.28
2023-05-12T16:38:34.298Z,30.35
2023-05-12T16:41:37.559Z,29.86
2023-05-12T16:44:41.032Z,30.20
2023-05-12T16:47:44.617Z,30.47
2023-05-12T16:50:48.071Z,30.26
2023-05-12T16:53:51.449Z,30.61
2023-05-12T16:56:54.609Z,30.92
2023-05-12T16:59:58.142Z,29.69
2023-05-12T17:03:03.812Z,29.60
2023-05-12T17:06:08.088Z,30.04
2023-05-12T17:09:13.655Z,30.20
2023-05-12T17:12:21.525Z,30.35
2023-05-12T17:15:25.252Z,30.87
2023-05-12T17:18:29.161Z,30.42
2023-05-12T17:21:33.602Z,29.26
2023-05-12T17:24:37.156Z,30.24
2023-05-12T17:27:40.718Z,30.25
2023-05-12T17:30:46.959Z,31.16
2023-05-12T17:33:49.734Z,30.83
2023-05-12T17:36:53.689Z,30.47
2023-05-12T17:39:58.308Z,30.58
2023-05-12T17:43:01.618Z,30.37
2023-05-12T17:46:05.278Z,30.49
2023-05-12T17:49:11.149Z,30.94
2023-05-12T17:52:14.640Z,31.42
2023-05-12T17:55:17.933Z,31.92
2023-05-12T17:58:21.315Z,31.66
2023-05-12T18:01:24.611Z,31.26
2023-05-12T18:04:28.602Z,30.51
2023-05-12T18:07:32.488Z,30.81
2023-05-12T18:10:35.931Z,31.11
2023-05-12T18:13:39.477Z,31.16
2023-05-12T18:16:46.264Z,31.00
2023-05-12T18:19:49.550Z,31.77
2023-05-12T18:22:54.203Z,31.43
2023-05-12T18:25:57.618Z,32.29
2023-05-12T18:29:00.935Z,31.54
2023-05-12T18:32:04.933Z,31.12
2023-05-12T18:35:09.194Z,31.24
2023-05-12T18:38:12.484Z,31.90
2023-05-12T18:41:16.656Z,31.36
2023-05-12T18:44:19.869Z,31.24
2023-05-12T18:47:23.322Z,31.61
2023-05-12T18:50:26.607Z,31.48
2023-05-12T18:53:32.713Z,31.55
2023-05-12T18:56:35.762Z,31.58
2023-05-12T18:59:38.992Z,32.06
2023-05-12T19:02:42.388Z,32.68
2023-05-12T19:05:45.729Z,32.70
2023-05-12T19:08:49.020Z,32.24
2023-05-12T19:11:52.240Z,32.21
2023-05-12T19:14:57.961Z,31.91
2023-05-12T19:18:01.417Z,32.52
2023-05-12T19:21:04.818Z,32.79
2023-05-12T19:24:08.437Z,32.02
2023-05-12T19:27:11.768Z,31.18
2023-05-12T19:30:15.764Z,31.46
2023-05-12T19:33:19.089Z,30.85
2023-05-12T19:36:22.278Z,30.69
2023-05-12T19:39:25.725Z,30.40
2023-05-12T19:42:28.937Z,30.26
2023-05-12T19:45:32.513Z,30.24
2023-05-12T19:48:35.842Z,30.16
2023-05-12T19:51:39.602Z,30.21
2023-05-12T19:54:43.083Z,30.16
2023-05-12T19:57:46.666Z,30.09
2023-05-12T20:00:50.038Z,30.01
2023-05-12T20:03:57.539Z,29.41
2023-05-12T20:07:00.707Z,29.16
2023-05-12T20:10:04.694Z,28.85
2023-05-12T20:13:08.928Z,29.06
2023-05-12T20:16:12.587Z,29.12
2023-05-12T20:19:19.200Z,29.43
2023-05-12T20:22:22.448Z,29.72
2023-05-12T20:25:28.164Z,29.69
2023-05-12T20:28:33.807Z,29.86
2023-05-12T20:31:37.367Z,29.91
2023-05-12T20:34:40.790Z,29.99
2023-05-12T20:37:44.334Z,30.06
2023-05-12T20:40:47.690Z,30.29
2023-05-12T20:43:50.944Z,30.25
2023-05-12T20:46:54.546Z,30.41
2023-05-12T20:49:58.016Z,30.47
2023-05-12T20:53:01.216Z,30.77
2023-05-12T20:56:04.486Z,30.68
2023-05-12T20:59:08.164Z,30.28
2023-05-12T21:02:11.399Z,30.21
2023-05-12T21:05:15.017Z,30.29
2023-05-12T21:08:18.316Z,30.46
2023-05-12T21:11:21.804Z,30.34
2023-05-12T21:14:25.680Z,30.48
2023-05-12T21:17:28.952Z,30.59
2023-05-12T21:20:32.498Z,30.60
2023-05-12T21:23:38.844Z,30.46
2023-05-12T21:26:41.925Z,30.35
2023-05-12T21:29:45.439Z,30.09
2023-05-12T21:32:48.790Z,30.20
2023-05-12T21:35:51.979Z,30.27
2023-05-12T21:38:55.371Z,30.31
2023-05-12T21:41:58.890Z,30.53
2023-05-12T21:45:02.269Z,30.54
2023-05-12T21:48:09.419Z,30.64
2023-05-12T21:51:12.914Z,30.58
2023-05-12T21:54:16.232Z,30.46
2023-05-12T21:57:20.209Z,30.64
2023-05-12T22:00:23.832Z,30.96
2023-05-12T22:03:27.363Z,30.44
2023-05-12T22:06:31.005Z,30.59
2023-05-12T22:09:34.220Z,30.69
2023-05-12T22:12:37.607Z,30.53
2023-05-12T22:15:40.878Z,30.32
2023-05-12T22:18:46.537Z,30.12
2023-05-12T22:21:50.207Z,30.29
2023-05-12T22:24:56.281Z,30.31
2023-05-12T22:27:59.545Z,30.58
2023-05-12T22:31:03.159Z,30.58
2023-05-12T22:34:06.737Z,30.63
2023-05-12T22:37:09.972Z,30.75
2023-05-12T22:40:13.338Z,30.75
2023-05-12T22:43:16.867Z,30.77
2023-05-12T22:46:20.571Z,30.67
2023-05-12T22:49:24.124Z,30.93
2023-05-12T22:52:27.641Z,30.55
2023-05-12T22:55:31.662Z,30.61
2023-05-12T22:58:35.153Z,30.51
2023-05-12T23:01:38.569Z,30.38
2023-05-12T23:04:42.029Z,30.79
2023-05-12T23:07:47.832Z,30.98
2023-05-12T23:10:53.374Z,31.08
2023-05-12T23:13:56.720Z,30.77
2023-05-12T23:17:00.219Z,30.51
2023-05-12T23:20:03.880Z,30.56
2023-05-12T23:23:07.157Z,30.75
2023-05-12T23:26:11.218Z,30.44
2023-05-12T23:29:15.039Z,30.51
2023-05-12T23:32:18.551Z,30.45
2023-05-12T23:35:22.072Z,30.34
2023-05-12T23:38:25.702Z,30.62
2023-05-12T23:41:28.968Z,30.62
2023-05-12T23:44:32.192Z,30.19
2023-05-12T23:47:37.945Z,30.37
2023-05-12T23:50:41.339Z,30.42
2023-05-12T23:53:44.594Z,30.25
2023-05-12T23:56:48.168Z,30.38
2023-05-12T23:59:51.556Z,30.37
